createdAt,value
2018-07-23T00:02:20.860Z,17.37
2018-07-23T00:04:49.838Z,19.13
2018-07-23T00:07:18.864Z,19.57
2018-07-23T00:09:48.649Z,19.53
2018-07-23T00:12:17.634Z,18.15
2018-07-23T00:14:46.644Z,15.97
2018-07-23T00:17:15.642Z,20.08
2018-07-23T00:19:44.693Z,15.27
2018-07-23T00:22:13.676Z,17.45
2018-07-23T00:24:42.996Z,19.62
2018-07-23T00:27:12.040Z,20.83
2018-07-23T00:29:41.203Z,20.15
2018-07-23T00:32:10.175Z,17.80
2018-07-23T00:34:39.147Z,17.98
2018-07-23T00:37:08.186Z,20.08
2018-07-23T00:39:36.987Z,21.68
2018-07-23T00:42:06.847Z,18.00
2018-07-23T00:44:35.847Z,19.07
2018-07-23T00:47:04.828Z,18.57
2018-07-23T00:49:33.858Z,20.33
2018-07-23T00:52:02.727Z,23.33
2018-07-23T00:54:31.474Z,19.82
2018-07-23T00:57:00.626Z,23.80
2018-07-23T00:59:30.116Z,20.17
2018-07-23T01:01:59.160Z,23.40
2018-07-23T01:04:28.423Z,18.57
2018-07-23T01:06:57.288Z,17.97
2018-07-23T01:09:27.263Z,24.83
2018-07-23T01:11:56.286Z,19.50
2018-07-23T01:14:25.319Z,21.62
2018-07-23T01:16:54.315Z,20.37
2018-07-23T01:19:23.619Z,21.95
2018-07-23T01:21:53.723Z,20.80
2018-07-23T01:24:23.616Z,22.53
2018-07-23T01:26:53.246Z,22.58
2018-07-23T01:29:22.410Z,20.88
2018-07-23T01:31:51.387Z,18.02
2018-07-23T01:34:20.194Z,23.47
2018-07-23T01:36:48.858Z,21.60
2018-07-23T01:39:17.695Z,21.15
2018-07-23T01:41:46.703Z,18.30
2018-07-23T01:44:15.674Z,22.93
2018-07-23T01:46:45.373Z,21.80
2018-07-23T01:49:14.206Z,21.50
2018-07-23T01:51:43.218Z,18.27
2018-07-23T01:54:12.172Z,18.93
2018-07-23T01:56:41.162Z,22.17
2018-07-23T01:59:10.263Z,25.67
2018-07-23T02:01:39.231Z,23.90
2018-07-23T02:04:08.230Z,23.83
2018-07-23T02:06:37.203Z,20.60
2018-07-23T02:09:08.139Z,20.53
2018-07-23T02:11:37.155Z,20.87
2018-07-23T02:14:06.184Z,24.40
2018-07-23T02:16:36.012Z,22.17
2018-07-23T02:19:05.443Z,18.30
2018-07-23T02:21:35.337Z,23.47
2018-07-23T02:24:04.899Z,20.48
2018-07-23T02:26:33.999Z,19.27
2018-07-23T02:29:02.794Z,20.57
2018-07-23T02:31:31.666Z,19.98
2018-07-23T02:34:01.529Z,21.95
2018-07-23T02:36:30.579Z,23.42
2018-07-23T02:38:59.597Z,17.30
2018-07-23T02:41:28.598Z,16.82
2018-07-23T02:43:58.563Z,19.83
2018-07-23T02:46:27.369Z,18.57
2018-07-23T02:48:56.006Z,15.47
2018-07-23T02:51:24.928Z,20.13
2018-07-23T02:53:54.400Z,20.08
2018-07-23T02:56:24.321Z,16.40
2018-07-23T02:58:54.285Z,14.27
2018-07-23T03:01:23.293Z,14.97
2018-07-23T03:03:56.129Z,17.07
2018-07-23T03:06:26.521Z,17.73
2018-07-23T03:08:55.780Z,17.03
2018-07-23T03:11:25.226Z,15.53
2018-07-23T03:13:55.516Z,15.47
2018-07-23T03:16:24.442Z,12.17
2018-07-23T03:18:54.308Z,14.73
2018-07-23T03:21:23.297Z,16.67
2018-07-23T03:23:53.099Z,14.35
2018-07-23T03:26:22.097Z,16.30
2018-07-23T03:28:51.067Z,13.83
2018-07-23T03:31:19.825Z,12.60
2018-07-23T03:33:48.868Z,12.67
2018-07-23T03:36:17.878Z,12.47
2018-07-23T03:38:46.903Z,14.43
2018-07-23T03:41:22.766Z,13.23
2018-07-23T03:43:51.970Z,16.00
2018-07-23T03:46:20.972Z,14.33
2018-07-23T03:48:50.051Z,14.87
2018-07-23T03:51:19.047Z,14.33
2018-07-23T03:53:48.032Z,13.20
2018-07-23T03:56:17.064Z,14.23
2018-07-23T03:58:45.811Z,12.93
2018-07-23T04:01:14.687Z,13.33
2018-07-23T04:03:43.736Z,12.47
2018-07-23T04:06:12.751Z,11.63
2018-07-23T04:08:41.735Z,13.10
2018-07-23T04:11:10.740Z,12.23
2018-07-23T04:13:39.746Z,12.63
2018-07-23T04:16:09.556Z,12.03
2018-07-23T04:18:38.546Z,11.43
2018-07-23T04:21:07.521Z,13.57
2018-07-23T04:23:36.507Z,13.53
2018-07-23T04:26:05.282Z,13.23
2018-07-23T04:28:34.140Z,15.05
2018-07-23T04:31:03.147Z,12.60
2018-07-23T04:33:32.134Z,14.10
2018-07-23T04:36:01.168Z,14.05
2018-07-23T04:38:30.140Z,14.33
2018-07-23T04:40:59.184Z,13.85
2018-07-23T04:43:28.184Z,13.62
2018-07-23T04:45:57.184Z,13.20
2018-07-23T04:48:27.143Z,13.30
2018-07-23T04:50:56.104Z,14.60
2018-07-23T04:53:25.166Z,14.07
2018-07-23T04:55:53.986Z,15.70
2018-07-23T04:58:22.859Z,14.00
2018-07-23T05:00:51.816Z,11.30
2018-07-23T05:03:20.823Z,11.03
2018-07-23T05:05:49.862Z,10.23
2018-07-23T05:08:19.083Z,9.88
2018-07-23T05:10:48.036Z,9.43
2018-07-23T05:13:16.823Z,10.17
2018-07-23T05:15:45.702Z,10.93
2018-07-23T05:18:14.704Z,10.23
2018-07-23T05:20:43.740Z,10.82
2018-07-23T05:23:13.154Z,10.80
2018-07-23T05:25:41.947Z,9.98
2018-07-23T05:28:10.782Z,10.32
2018-07-23T05:30:39.743Z,10.48
2018-07-23T05:33:08.726Z,11.47
2018-07-23T05:35:37.691Z,10.13
2018-07-23T05:38:06.668Z,9.23
2018-07-23T05:40:36.283Z,10.68
2018-07-23T05:43:05.547Z,9.83
2018-07-23T05:45:34.527Z,10.50
2018-07-23T05:48:03.546Z,8.92
2018-07-23T05:50:32.568Z,9.20
2018-07-23T05:53:01.571Z,9.63
2018-07-23T05:55:30.556Z,9.18
2018-07-23T05:57:59.600Z,10.00
2018-07-23T06:00:28.606Z,9.60
2018-07-23T06:02:57.835Z,8.63
2018-07-23T06:05:27.714Z,9.80
2018-07-23T06:07:57.639Z,8.45
2018-07-23T06:10:28.307Z,7.80
2018-07-23T06:12:57.570Z,9.30
2018-07-23T06:15:26.447Z,8.63
2018-07-23T06:17:55.243Z,9.90
2018-07-23T06:20:24.082Z,8.13
2018-07-23T06:22:53.051Z,8.78
2018-07-23T06:25:22.039Z,8.30
2018-07-23T06:27:51.075Z,8.30
2018-07-23T06:30:20.100Z,9.50
2018-07-23T06:32:49.070Z,9.43
2018-07-23T06:35:18.048Z,9.03
2018-07-23T06:37:47.049Z,10.00
2018-07-23T06:40:16.126Z,11.12
2018-07-23T06:42:45.143Z,11.33
2018-07-23T06:45:14.115Z,13.03
2018-07-23T06:47:43.171Z,13.48
2018-07-23T06:50:12.308Z,13.18
2018-07-23T06:52:41.279Z,13.13
2018-07-23T06:55:10.223Z,13.43
2018-07-23T06:57:40.175Z,12.73
2018-07-23T07:00:09.220Z,12.17
2018-07-23T07:02:38.195Z,14.28
2018-07-23T07:05:07.210Z,12.82
2018-07-23T07:07:36.224Z,12.93
2018-07-23T07:10:05.990Z,13.10
2018-07-23T07:12:34.738Z,11.60
2018-07-23T07:15:03.655Z,10.85
2018-07-23T07:17:32.691Z,10.02
2018-07-23T07:20:01.806Z,9.97
2018-07-23T07:22:30.747Z,13.23
2018-07-23T07:24:59.842Z,12.35
2018-07-23T07:27:28.839Z,11.20
2018-07-23T07:29:58.079Z,10.63
2018-07-23T07:32:28.013Z,9.60
2018-07-23T07:34:57.976Z,11.60
2018-07-23T07:37:27.910Z,10.10
2018-07-23T07:39:56.880Z,10.93
2018-07-23T07:42:25.843Z,11.43
2018-07-23T07:44:54.824Z,11.75
2018-07-23T07:47:23.881Z,9.93
2018-07-23T07:49:52.879Z,10.63
2018-07-23T07:52:21.848Z,9.55
2018-07-23T07:54:50.823Z,10.48
2018-07-23T07:57:19.831Z,10.53
2018-07-23T07:59:48.871Z,11.03
2018-07-23T08:02:17.870Z,12.47
2018-07-23T08:04:46.827Z,12.10
2018-07-23T08:07:15.703Z,12.53
2018-07-23T08:09:44.631Z,10.93
2018-07-23T08:12:13.367Z,10.15
2018-07-23T08:14:42.249Z,11.57
2018-07-23T08:17:11.527Z,11.80
2018-07-23T08:19:40.559Z,11.43
2018-07-23T08:22:09.554Z,11.20
2018-07-23T08:24:38.463Z,10.10
2018-07-23T08:27:07.122Z,10.30
2018-07-23T08:29:36.015Z,10.10
2018-07-23T08:32:06.133Z,8.15
2018-07-23T08:34:34.950Z,10.43
2018-07-23T08:37:03.967Z,8.93
2018-07-23T08:39:33.741Z,8.82
2018-07-23T08:42:02.796Z,9.33
2018-07-23T08:44:31.646Z,9.15
2018-07-23T08:47:00.514Z,8.18
2018-07-23T08:49:29.624Z,10.10
2018-07-23T08:51:58.807Z,8.75
2018-07-23T08:54:28.470Z,7.60
2018-07-23T08:56:57.509Z,7.45
2018-07-23T08:59:26.532Z,6.47
2018-07-23T09:01:55.311Z,9.47
2018-07-23T09:04:24.143Z,6.05
2018-07-23T09:06:53.279Z,4.78
2018-07-23T09:09:22.264Z,6.37
2018-07-23T09:11:51.239Z,6.07
2018-07-23T09:14:20.442Z,7.50
2018-07-23T09:16:49.406Z,6.40
2018-07-23T09:19:18.174Z,6.12
2018-07-23T09:21:47.089Z,7.70
2018-07-23T09:24:16.081Z,5.80
2018-07-23T09:26:45.030Z,7.07
2018-07-23T09:29:13.994Z,6.13
2018-07-23T09:31:43.044Z,5.40
2018-07-23T09:34:11.986Z,6.53
2018-07-23T09:36:40.979Z,8.83
2018-07-23T09:39:11.374Z,7.33
2018-07-23T09:41:40.350Z,6.25
2018-07-23T09:44:09.390Z,5.27
2018-07-23T09:46:38.383Z,6.00
2018-07-23T09:49:07.414Z,6.92
2018-07-23T09:51:36.391Z,6.90
2018-07-23T09:54:05.392Z,6.27
2018-07-23T09:56:34.265Z,6.30
2018-07-23T09:59:03.282Z,7.25
2018-07-23T10:01:32.313Z,7.10
2018-07-23T10:04:01.284Z,7.97
2018-07-23T10:06:30.234Z,6.00
2018-07-23T10:08:59.052Z,5.80
2018-07-23T10:11:28.479Z,6.45
2018-07-23T10:13:57.355Z,4.97
2018-07-23T10:16:26.371Z,5.50
2018-07-23T10:18:55.367Z,5.05
2018-07-23T10:21:25.025Z,5.57
2018-07-23T10:23:53.910Z,4.95
2018-07-23T10:26:22.915Z,4.50
2018-07-23T10:28:51.939Z,5.53
2018-07-23T10:31:20.956Z,4.50
2018-07-23T10:33:49.940Z,5.45
2018-07-23T10:36:18.919Z,5.55
2018-07-23T10:38:47.872Z,4.67
2018-07-23T10:41:16.916Z,5.03
2018-07-23T10:43:45.890Z,4.05
2018-07-23T10:46:14.667Z,4.33
2018-07-23T10:48:44.303Z,5.10
2018-07-23T10:51:13.351Z,4.53
2018-07-23T10:53:42.364Z,5.10
2018-07-23T10:56:11.344Z,5.08
2018-07-23T10:58:40.353Z,4.65
2018-07-23T11:01:09.331Z,5.80
2018-07-23T11:03:38.346Z,5.45
2018-07-23T11:06:07.370Z,5.30
2018-07-23T11:08:36.307Z,4.58
2018-07-23T11:11:05.335Z,5.13
2018-07-23T11:13:34.189Z,6.72
2018-07-23T11:16:03.080Z,5.15
2018-07-23T11:18:32.119Z,6.45
2018-07-23T11:21:01.178Z,4.70
2018-07-23T11:23:30.223Z,5.40
2018-07-23T11:26:00.739Z,5.18
2018-07-23T11:28:29.853Z,5.92
2018-07-23T11:30:59.935Z,5.53
2018-07-23T11:33:29.831Z,5.00
2018-07-23T11:40:26.161Z,4.78
2018-07-23T11:42:54.782Z,5.83
2018-07-23T11:45:23.752Z,5.97
2018-07-23T11:47:52.751Z,5.40
2018-07-23T11:50:21.700Z,5.30
2018-07-23T11:52:50.662Z,6.08
2018-07-23T11:55:19.645Z,4.65
2018-07-23T11:57:48.627Z,5.40
2018-07-23T12:00:17.603Z,4.35
2018-07-23T12:02:46.618Z,5.42
2018-07-23T12:05:15.603Z,5.30
2018-07-23T12:07:44.640Z,5.05
2018-07-23T12:10:13.553Z,6.22
2018-07-23T12:12:42.539Z,4.50
2018-07-23T12:15:11.515Z,5.33
2018-07-23T12:17:40.555Z,5.70
2018-07-23T12:20:09.488Z,4.13
2018-07-23T12:22:38.463Z,6.27
2018-07-23T12:25:07.411Z,4.93
2018-07-23T12:27:36.419Z,5.53
2018-07-23T12:30:05.463Z,4.90
2018-07-23T12:32:34.574Z,5.78
2018-07-23T12:35:03.508Z,5.12
2018-07-23T12:37:32.515Z,4.03
2018-07-23T12:40:01.615Z,4.42
2018-07-23T12:42:30.623Z,4.08
2018-07-23T12:45:00.198Z,4.28
2018-07-23T12:47:30.306Z,4.95
2018-07-23T12:50:26.166Z,4.08
2018-07-23T12:52:55.007Z,4.05
2018-07-23T12:55:23.952Z,3.67
2018-07-23T12:57:53.028Z,2.98
2018-07-23T13:00:22.008Z,3.60
2018-07-23T13:02:51.220Z,3.07
2018-07-23T13:05:22.530Z,3.45
2018-07-23T13:07:52.617Z,3.20
2018-07-23T13:10:21.604Z,4.33
2018-07-23T13:12:50.570Z,3.70
2018-07-23T13:15:19.383Z,3.85
2018-07-23T13:17:48.864Z,4.20
2018-07-23T13:20:17.862Z,3.20
2018-07-23T13:22:47.116Z,4.00
2018-07-23T13:25:16.198Z,3.90
2018-07-23T13:27:45.126Z,3.42
2018-07-23T13:30:13.978Z,4.15
2018-07-23T13:32:44.011Z,3.17
2018-07-23T13:35:13.005Z,3.53
2018-07-23T13:37:42.574Z,3.20
2018-07-23T13:40:11.615Z,4.10
2018-07-23T13:42:40.676Z,3.50
2018-07-23T13:45:09.667Z,3.60
2018-07-23T13:47:38.451Z,4.03
2018-07-23T13:50:07.283Z,3.02
2018-07-23T13:52:36.266Z,4.00
2018-07-23T13:55:05.259Z,3.54
2018-07-23T13:57:34.382Z,3.65
2018-07-23T14:00:03.258Z,3.65
2018-07-23T14:02:32.967Z,3.37
2018-07-23T14:05:02.303Z,4.28
2018-07-23T14:07:31.864Z,3.87
2018-07-23T14:10:01.540Z,4.20
2018-07-23T14:12:31.548Z,3.60
2018-07-23T14:15:01.508Z,3.80
2018-07-23T14:17:30.557Z,3.30
2018-07-23T14:20:00.532Z,3.50
2018-07-23T14:22:30.718Z,3.90
2018-07-23T14:25:00.595Z,3.30
2018-07-23T14:27:30.862Z,4.12
2018-07-23T14:30:00.640Z,3.80
2018-07-23T14:32:30.763Z,4.15
2018-07-23T14:35:00.612Z,3.85
2018-07-23T14:37:30.555Z,4.20
2018-07-23T14:39:59.746Z,3.70
2018-07-23T14:42:28.808Z,3.20
2018-07-23T14:44:58.026Z,3.58
2018-07-23T14:47:27.154Z,3.72
2018-07-23T14:49:56.090Z,3.85
2018-07-23T14:52:25.064Z,3.90
2018-07-23T14:54:54.051Z,3.52
2018-07-23T14:57:23.088Z,3.33
2018-07-23T14:59:52.079Z,3.83
2018-07-23T15:02:21.187Z,4.25
2018-07-23T15:04:50.034Z,3.23
2018-07-23T15:07:19.002Z,4.53
2018-07-23T15:09:48.027Z,3.10
2018-07-23T15:12:17.013Z,3.40
2018-07-23T15:14:45.975Z,3.60
2018-07-23T15:17:14.959Z,3.58
2018-07-23T15:19:43.779Z,5.17
2018-07-23T15:22:12.583Z,3.35
2018-07-23T15:24:41.659Z,3.75
2018-07-23T15:27:10.701Z,3.67
2018-07-23T15:29:39.653Z,2.95
2018-07-23T15:32:08.676Z,3.33
2018-07-23T15:34:37.425Z,2.62
2018-07-23T15:37:06.278Z,3.52
2018-07-23T15:39:35.055Z,2.58
2018-07-23T15:42:03.928Z,3.30
2018-07-23T15:44:33.277Z,3.10
2018-07-23T15:47:02.183Z,3.25
2018-07-23T15:49:31.191Z,4.05
2018-07-23T15:52:00.951Z,3.63
2018-07-23T15:54:29.783Z,3.83
2018-07-23T15:56:58.814Z,3.27
2018-07-23T15:59:27.807Z,3.58
2018-07-23T16:01:56.667Z,4.62
2018-07-23T16:04:25.511Z,3.27
2018-07-23T16:06:54.375Z,3.87
2018-07-23T16:09:23.374Z,3.20
2018-07-23T16:11:52.430Z,3.63
2018-07-23T16:14:21.474Z,3.83
2018-07-23T16:16:50.457Z,3.33
2018-07-23T16:19:19.447Z,4.12
2018-07-23T16:21:48.459Z,3.47
2018-07-23T16:24:17.474Z,3.83
2018-07-23T16:26:46.408Z,3.80
2018-07-23T16:29:15.388Z,2.97
2018-07-23T16:31:44.387Z,3.77
2018-07-23T16:34:13.355Z,2.98
2018-07-23T16:36:42.339Z,3.40
2018-07-23T16:39:12.791Z,3.08
2018-07-23T16:41:42.038Z,2.90
2018-07-23T16:44:11.012Z,2.92
2018-07-23T16:46:40.019Z,2.85
2018-07-23T16:49:08.716Z,3.08
2018-07-23T16:51:37.602Z,3.07
2018-07-23T16:54:06.323Z,2.87
2018-07-23T16:56:35.136Z,2.73
2018-07-23T16:59:03.964Z,2.90
2018-07-23T17:01:33.102Z,3.42
2018-07-23T17:04:03.229Z,2.94
2018-07-23T17:06:32.309Z,3.67
2018-07-23T17:09:01.737Z,3.00
2018-07-23T17:20:26.733Z,2.60
2018-07-23T17:23:11.885Z,2.77
2018-07-23T17:25:40.829Z,3.70
2018-07-23T17:28:09.614Z,3.25
2018-07-23T17:30:38.572Z,3.17
2018-07-23T17:33:07.982Z,3.87
2018-07-23T17:35:37.086Z,3.60
2018-07-23T17:38:06.120Z,3.80
2018-07-23T17:40:35.125Z,3.30
2018-07-23T17:43:04.158Z,3.20
2018-07-23T17:45:33.001Z,3.92
2018-07-23T17:48:01.879Z,3.10
2018-07-23T17:50:32.077Z,3.37
2018-07-23T17:53:02.029Z,2.75
2018-07-23T17:55:31.960Z,3.08
2018-07-23T17:58:01.914Z,3.55
2018-07-23T18:10:26.183Z,3.15
2018-07-23T18:12:55.141Z,3.67
2018-07-23T18:15:24.179Z,3.50
2018-07-23T18:17:53.022Z,3.28
2018-07-23T18:20:21.860Z,4.00
2018-07-23T18:22:50.610Z,2.87
2018-07-23T18:25:19.502Z,3.72
2018-07-23T18:27:48.538Z,3.83
2018-07-23T18:30:17.805Z,3.40
2018-07-23T18:32:46.836Z,3.10
2018-07-23T18:35:15.700Z,3.30
2018-07-23T18:37:45.734Z,3.90
2018-07-23T18:40:14.855Z,2.90
2018-07-23T18:42:43.673Z,4.07
2018-07-23T18:45:12.531Z,3.42
2018-07-23T18:47:41.541Z,3.87
2018-07-23T18:50:10.562Z,4.03
2018-07-23T18:52:39.546Z,3.70
2018-07-23T18:55:08.889Z,4.23
2018-07-23T18:57:37.650Z,3.30
2018-07-23T19:00:06.663Z,4.20
2018-07-23T19:02:35.640Z,4.35
2018-07-23T19:05:05.372Z,4.62
2018-07-23T19:07:34.342Z,4.67
2018-07-23T19:10:03.484Z,3.93
2018-07-23T19:12:32.795Z,4.57
2018-07-23T19:15:02.682Z,4.40
2018-07-23T19:17:31.590Z,4.45
2018-07-23T19:20:00.616Z,6.27
2018-07-23T19:22:29.612Z,4.37
2018-07-23T19:24:58.664Z,5.03
2018-07-23T19:27:27.771Z,4.60
2018-07-23T19:29:56.843Z,5.10
2018-07-23T19:32:25.899Z,5.35
2018-07-23T19:34:54.924Z,4.75
2018-07-23T19:37:23.944Z,5.33
2018-07-23T19:39:52.970Z,4.85
2018-07-23T19:42:22.129Z,5.75
2018-07-23T19:44:51.114Z,5.73
2018-07-23T19:47:21.068Z,5.60
2018-07-23T19:49:51.177Z,6.20
2018-07-23T19:52:21.155Z,5.30
2018-07-23T19:54:50.418Z,5.73
2018-07-23T19:57:19.443Z,5.70
2018-07-23T19:59:48.572Z,4.87
2018-07-23T20:02:17.606Z,5.70
2018-07-23T20:04:46.664Z,4.70
2018-07-23T20:07:15.714Z,6.00
2018-07-23T20:10:27.481Z,5.37
2018-07-23T20:12:56.604Z,8.10
2018-07-23T20:15:25.623Z,4.92
2018-07-23T20:17:56.107Z,5.03
2018-07-23T20:20:25.155Z,4.30
2018-07-23T20:22:54.159Z,4.28
2018-07-23T20:25:22.999Z,4.83
2018-07-23T20:27:51.927Z,4.33
2018-07-23T20:30:21.043Z,4.67
2018-07-23T20:32:50.187Z,4.30
2018-07-23T20:35:19.236Z,4.75
2018-07-23T20:37:48.336Z,3.90
2018-07-23T20:40:17.419Z,4.50
2018-07-23T20:42:47.022Z,4.22
2018-07-23T20:45:16.131Z,4.20
2018-07-23T20:47:45.342Z,5.20
2018-07-23T20:50:14.433Z,4.40
2018-07-23T20:52:43.496Z,4.63
2018-07-23T20:55:12.564Z,4.33
2018-07-23T20:57:41.593Z,4.50
2018-07-23T21:00:11.530Z,4.70
2018-07-23T21:02:41.550Z,4.00
2018-07-23T21:05:10.599Z,4.55
2018-07-23T21:07:39.600Z,3.90
2018-07-23T21:10:08.626Z,4.40
2018-07-23T21:12:37.690Z,4.17
2018-07-23T21:15:07.599Z,4.20
2018-07-23T21:17:36.525Z,4.20
2018-07-23T21:20:06.614Z,3.80
2018-07-23T21:22:35.658Z,5.00
2018-07-23T21:25:05.263Z,3.64
2018-07-23T21:27:35.242Z,4.15
2018-07-23T21:30:05.968Z,3.75
2018-07-23T21:32:35.193Z,3.92
2018-07-23T21:35:05.655Z,3.85
2018-07-23T21:37:35.296Z,3.70
2018-07-23T21:40:05.944Z,4.58
2018-07-23T21:42:35.231Z,3.65
2018-07-23T21:45:05.983Z,5.07
2018-07-23T21:47:35.918Z,3.56
2018-07-23T21:50:06.759Z,4.50
2018-07-23T21:52:35.877Z,4.05
2018-07-23T21:55:05.995Z,3.17
2018-07-23T21:57:35.414Z,4.92
2018-07-23T22:00:07.650Z,3.60
2018-07-23T22:02:36.524Z,4.55
2018-07-23T22:05:06.630Z,3.08
2018-07-23T22:07:35.709Z,4.83
2018-07-23T22:10:05.599Z,4.17
2018-07-23T22:12:38.366Z,3.67
2018-07-23T22:15:09.323Z,4.20
2018-07-23T22:17:38.385Z,4.22
2018-07-23T22:20:07.999Z,4.80
2018-07-23T22:22:37.006Z,3.70
2018-07-23T22:25:06.099Z,4.03
2018-07-23T22:27:35.188Z,3.83
2018-07-23T22:30:04.221Z,4.75
2018-07-23T22:32:33.194Z,4.58
2018-07-23T22:35:01.933Z,4.60
2018-07-23T22:37:30.828Z,4.63
2018-07-23T22:40:00.486Z,4.12
2018-07-23T22:42:31.091Z,4.62
2018-07-23T22:45:00.241Z,3.97
2018-07-23T22:47:29.258Z,4.97
2018-07-23T22:49:58.258Z,4.85
2018-07-23T22:52:27.235Z,4.50
2018-07-23T22:54:56.226Z,5.43
2018-07-23T22:57:25.198Z,5.73
2018-07-23T22:59:54.163Z,5.33
2018-07-23T23:02:22.909Z,4.97
2018-07-23T23:04:51.835Z,5.10
2018-07-23T23:07:20.806Z,5.97
2018-07-23T23:09:49.823Z,5.10
2018-07-23T23:12:18.846Z,5.22
2018-07-23T23:14:47.882Z,4.90
2018-07-23T23:17:16.692Z,5.80
2018-07-23T23:19:45.746Z,6.62
2018-07-23T23:22:14.747Z,6.10
2018-07-23T23:24:43.923Z,7.15
2018-07-23T23:27:12.870Z,6.13
2018-07-23T23:29:41.850Z,6.73
2018-07-23T23:32:10.857Z,5.97
2018-07-23T23:34:39.859Z,6.47
2018-07-23T23:37:08.895Z,6.40
2018-07-23T23:39:37.875Z,5.47
2018-07-23T23:42:06.827Z,6.27
2018-07-23T23:44:36.458Z,6.00
2018-07-23T23:47:05.644Z,5.75
2018-07-23T23:49:34.474Z,5.25
2018-07-23T23:52:03.436Z,5.33
2018-07-23T23:54:32.451Z,7.00
2018-07-23T23:57:01.182Z,6.12
2018-07-23T23:59:30.067Z,5.47
